Haydenville, Ohio
Current Conditions -  °F | °C
As of 4:15 PM on Thursday 23 Oct 2014 (Local Time) from KUNI Reporting Station
Clear Clear  
Wind Chill: 60°   Ceiling: Unl
Heat Index: 60°   Visibility: 10mi
Dew Point: 40°   Wind: 6mph
Humidity: 48%   Direction: 360°N
Pressure: 30.12"   Gusts: NA
Location:  39.48°N, 82.33°W
Report Text: KUNI 232015Z AUTO 36005KT 10SM CLR 16/05 A3012 RMK AO2 T01560045
Loading
Personal Weather Stations






























Interactive Weather Map
Tropical Storm Tracking
New forecast layout! Learn more

10-Day Weather Forecast

Advertisements
Track Severe Weather on mobile